createdAt,value
2018-03-06T00:00:17.794Z,13.10
2018-03-06T00:03:26.654Z,12.17
2018-03-06T00:06:35.793Z,13.20
2018-03-06T00:09:46.681Z,12.43
2018-03-06T00:12:54.693Z,11.43
2018-03-06T00:16:03.193Z,11.67
2018-03-06T00:19:10.547Z,11.50
2018-03-06T00:22:20.083Z,11.90
2018-03-06T00:25:28.708Z,13.53
2018-03-06T00:28:34.893Z,11.60
2018-03-06T00:31:40.798Z,12.70
2018-03-06T00:34:48.080Z,12.10
2018-03-06T00:38:02.156Z,12.30
2018-03-06T00:41:07.729Z,11.80
2018-03-06T00:44:13.547Z,12.07
2018-03-06T00:47:20.313Z,12.47
2018-03-06T00:50:27.319Z,12.27
2018-03-06T00:53:34.600Z,11.97
2018-03-06T00:56:43.132Z,12.43
2018-03-06T00:59:49.653Z,12.23
2018-03-06T01:02:55.393Z,12.23
2018-03-06T01:06:01.422Z,12.97
2018-03-06T01:09:06.961Z,12.03
2018-03-06T01:12:12.827Z,11.83
2018-03-06T01:15:19.249Z,12.30
2018-03-06T01:18:24.870Z,11.67
2018-03-06T01:21:30.704Z,11.77
2018-03-06T01:24:36.267Z,13.20
2018-03-06T01:27:46.917Z,12.03
2018-03-06T01:30:52.555Z,13.40
2018-03-06T01:33:58.541Z,11.73
2018-03-06T01:37:04.396Z,11.70
2018-03-06T01:40:09.927Z,11.93
2018-03-06T01:43:16.319Z,10.83
2018-03-06T01:46:22.068Z,12.77
2018-03-06T01:49:28.873Z,12.80
2018-03-06T01:52:34.403Z,11.13
2018-03-06T01:55:41.754Z,11.20
2018-03-06T01:58:47.283Z,13.03
2018-03-06T02:01:52.866Z,11.80
2018-03-06T02:05:00.182Z,11.73
2018-03-06T02:08:05.715Z,11.70
2018-03-06T02:11:11.142Z,12.17
2018-03-06T02:14:16.686Z,13.50
2018-03-06T02:17:22.537Z,11.40
2018-03-06T02:20:28.099Z,12.00
2018-03-06T02:23:34.089Z,13.70
2018-03-06T02:26:39.625Z,12.73
2018-03-06T02:29:45.889Z,12.60
2018-03-06T02:32:53.427Z,13.13
2018-03-06T02:36:02.070Z,13.27
2018-03-06T02:39:07.832Z,12.87
2018-03-06T02:42:13.628Z,12.57
2018-03-06T02:45:19.227Z,13.80
2018-03-06T02:48:24.956Z,13.10
2018-03-06T02:51:30.529Z,12.87
2018-03-06T02:54:36.673Z,14.00
2018-03-06T02:57:45.352Z,14.47
2018-03-06T03:00:51.761Z,14.07
2018-03-06T03:03:57.313Z,14.87
2018-03-06T03:07:03.104Z,15.33
2018-03-06T03:10:08.637Z,14.23
2018-03-06T03:13:14.196Z,14.70
2018-03-06T03:19:29.280Z,15.50
2018-03-06T03:22:34.853Z,15.83
2018-03-06T03:25:40.267Z,15.63
2018-03-06T03:28:45.822Z,15.27
2018-03-06T03:31:51.624Z,17.97
2018-03-06T03:34:57.527Z,16.83
2018-03-06T03:38:03.281Z,17.17
2018-03-06T03:41:08.848Z,18.70
2018-03-06T03:44:14.421Z,18.33
2018-03-06T03:47:19.982Z,17.10
2018-03-06T03:50:25.794Z,17.60
2018-03-06T03:53:31.366Z,17.63
2018-03-06T03:56:36.901Z,18.20
2018-03-06T03:59:42.699Z,18.53
2018-03-06T04:02:48.273Z,18.93
2018-03-06T04:05:53.853Z,20.73
2018-03-06T04:08:59.400Z,18.27
2018-03-06T04:12:04.768Z,20.40
2018-03-06T04:15:10.342Z,20.30
2018-03-06T04:21:26.489Z,21.83
2018-03-06T04:24:32.042Z,20.80
2018-03-06T04:27:37.641Z,21.00
2018-03-06T04:30:43.185Z,21.20
2018-03-06T04:33:48.756Z,22.43
2018-03-06T04:36:54.292Z,20.83
2018-03-06T04:40:00.086Z,20.90
2018-03-06T04:43:05.867Z,22.40
2018-03-06T04:46:11.409Z,19.70
2018-03-06T04:49:16.989Z,21.50
2018-03-06T04:52:22.529Z,21.47
2018-03-06T04:55:28.321Z,21.37
2018-03-06T04:58:33.588Z,20.97
2018-03-06T05:01:39.188Z,21.80
2018-03-06T05:04:44.733Z,20.00
2018-03-06T05:07:50.550Z,21.67
2018-03-06T05:10:56.148Z,20.53
2018-03-06T05:14:01.689Z,21.90
2018-03-06T05:17:07.273Z,22.83
2018-03-06T05:20:13.530Z,21.13
2018-03-06T05:23:19.103Z,23.53
2018-03-06T05:26:24.848Z,22.17
2018-03-06T05:29:30.433Z,23.37
2018-03-06T05:32:36.033Z,24.20
2018-03-06T05:35:41.858Z,24.30
2018-03-06T05:38:47.384Z,24.20
2018-03-06T05:41:52.944Z,24.37
2018-03-06T05:44:58.764Z,21.20
2018-03-06T05:48:04.314Z,22.97
2018-03-06T05:51:14.093Z,23.93
2018-03-06T05:58:00.166Z,23.83
2018-03-06T06:01:05.980Z,23.53
2018-03-06T06:04:34.111Z,22.30
2018-03-06T06:07:44.092Z,23.63
2018-03-06T06:10:49.896Z,24.43
2018-03-06T06:13:55.824Z,25.20
2018-03-06T06:17:05.860Z,24.73
2018-03-06T06:20:12.764Z,22.60
2018-03-06T06:23:18.624Z,22.77
2018-03-06T06:26:24.196Z,22.40
2018-03-06T06:29:29.702Z,23.17
2018-03-06T06:32:35.254Z,23.37
2018-03-06T06:35:40.809Z,23.50
2018-03-06T06:38:46.317Z,23.20
2018-03-06T06:41:51.864Z,23.37
2018-03-06T06:44:57.373Z,23.97
2018-03-06T06:48:02.925Z,24.97
2018-03-06T06:51:08.436Z,23.70
2018-03-06T06:54:13.759Z,24.33
2018-03-06T06:57:19.313Z,24.03
2018-03-06T07:00:24.865Z,23.93
2018-03-06T07:03:30.431Z,24.30
2018-03-06T07:06:35.985Z,23.60
2018-03-06T07:09:41.486Z,24.17
2018-03-06T07:12:47.037Z,25.20
2018-03-06T07:15:52.596Z,26.10
2018-03-06T07:18:58.157Z,26.47
2018-03-06T07:22:03.675Z,24.90
2018-03-06T07:25:09.220Z,27.90
2018-03-06T07:28:14.773Z,24.80
2018-03-06T07:31:20.278Z,27.03
2018-03-06T07:34:25.833Z,25.70
2018-03-06T07:37:31.336Z,25.47
2018-03-06T07:40:36.910Z,25.17
2018-03-06T07:43:42.421Z,26.60
2018-03-06T07:46:47.993Z,25.20
2018-03-06T07:49:53.500Z,25.33
2018-03-06T07:52:59.045Z,27.30
2018-03-06T07:56:04.602Z,26.30
2018-03-06T07:59:10.159Z,26.40
2018-03-06T08:02:15.677Z,26.03
2018-03-06T08:05:21.237Z,26.80
2018-03-06T08:08:26.745Z,24.20
2018-03-06T08:11:32.305Z,27.47
2018-03-06T08:14:37.817Z,27.37
2018-03-06T08:17:43.357Z,26.87
2018-03-06T08:20:48.910Z,25.23
2018-03-06T08:23:54.550Z,25.80
2018-03-06T08:27:00.062Z,26.60
2018-03-06T08:30:05.632Z,26.43
2018-03-06T08:33:11.137Z,26.97
2018-03-06T08:36:16.688Z,28.13
2018-03-06T08:39:22.265Z,27.30
2018-03-06T08:42:27.842Z,27.00
2018-03-06T08:45:33.429Z,25.33
2018-03-06T08:48:38.932Z,27.90
2018-03-06T08:51:44.465Z,25.50
2018-03-06T08:54:50.003Z,29.43
2018-03-06T08:57:55.362Z,25.93
2018-03-06T09:01:00.927Z,26.13
2018-03-06T09:04:06.421Z,29.07
2018-03-06T09:07:12.012Z,27.07
2018-03-06T09:10:17.277Z,28.57
2018-03-06T09:13:22.840Z,27.17
2018-03-06T09:16:28.394Z,27.53
2018-03-06T09:19:33.940Z,27.90
2018-03-06T09:22:39.429Z,28.30
2018-03-06T09:25:44.966Z,27.50
2018-03-06T09:28:50.519Z,27.80
2018-03-06T09:31:56.013Z,26.10
2018-03-06T09:35:01.554Z,28.83
2018-03-06T09:38:07.097Z,27.40
2018-03-06T09:41:12.596Z,28.80
2018-03-06T09:44:18.125Z,29.47
2018-03-06T09:47:23.661Z,27.57
2018-03-06T09:50:29.205Z,26.43
2018-03-06T09:53:34.758Z,29.07
2018-03-06T09:56:40.105Z,28.63
2018-03-06T09:59:45.645Z,28.50
2018-03-06T10:02:51.142Z,29.67
2018-03-06T10:05:56.701Z,29.80
2018-03-06T10:09:02.193Z,30.30
2018-03-06T10:12:07.484Z,30.30
2018-03-06T10:15:12.993Z,30.80
2018-03-06T10:18:18.540Z,28.67
2018-03-06T10:21:24.069Z,29.77
2018-03-06T10:24:29.610Z,28.93
2018-03-06T10:27:35.117Z,26.97
2018-03-06T10:30:40.652Z,29.00
2018-03-06T10:33:46.201Z,29.83
2018-03-06T10:36:51.748Z,29.50
2018-03-06T10:39:57.302Z,27.93
2018-03-06T10:43:02.816Z,28.87
2018-03-06T10:46:08.591Z,29.47
2018-03-06T10:49:14.149Z,28.40
2018-03-06T10:52:19.651Z,27.73
2018-03-06T10:55:24.896Z,28.23
2018-03-06T10:58:30.454Z,29.90
2018-03-06T11:01:36.985Z,29.83
2018-03-06T11:04:42.503Z,28.47
2018-03-06T11:07:48.049Z,29.73
2018-03-06T11:10:53.552Z,28.40
2018-03-06T11:13:59.094Z,27.47
2018-03-06T11:17:04.602Z,29.77
2018-03-06T11:20:10.149Z,25.90
2018-03-06T11:23:15.665Z,26.70
2018-03-06T11:26:21.346Z,26.93
2018-03-06T11:29:26.889Z,26.03
2018-03-06T11:32:32.389Z,27.33
2018-03-06T11:35:37.922Z,26.97
2018-03-06T11:38:43.470Z,29.63
2018-03-06T11:41:48.997Z,27.90
2018-03-06T11:44:54.561Z,27.50
2018-03-06T11:48:00.063Z,27.17
2018-03-06T11:51:05.463Z,27.60
2018-03-06T11:54:11.002Z,26.13
2018-03-06T11:57:16.555Z,28.07
2018-03-06T12:00:22.118Z,28.50
2018-03-06T12:03:27.632Z,27.10
2018-03-06T12:06:33.194Z,28.47
2018-03-06T12:09:38.713Z,27.57
2018-03-06T12:12:44.296Z,27.17
2018-03-06T12:15:49.954Z,25.43
2018-03-06T12:18:55.466Z,27.67
2018-03-06T12:22:01.027Z,27.30
2018-03-06T12:25:06.545Z,24.87
2018-03-06T12:28:12.084Z,25.43
2018-03-06T12:31:17.629Z,26.30
2018-03-06T12:34:23.195Z,27.13
2018-03-06T12:37:28.742Z,24.83
2018-03-06T12:40:34.025Z,25.83
2018-03-06T12:43:39.578Z,25.20
2018-03-06T12:46:45.084Z,24.10
2018-03-06T12:49:50.652Z,24.27
2018-03-06T12:52:56.265Z,25.57
2018-03-06T12:56:01.800Z,25.50
2018-03-06T12:59:07.306Z,26.83
2018-03-06T13:02:12.853Z,25.93
2018-03-06T13:05:18.389Z,25.43
2018-03-06T13:08:23.929Z,26.00
2018-03-06T13:11:29.450Z,26.40
2018-03-06T13:14:34.992Z,29.27
2018-03-06T13:17:46.693Z,28.70
2018-03-06T13:20:52.229Z,28.10
2018-03-06T13:23:57.733Z,30.33
2018-03-06T13:27:03.298Z,29.97
2018-03-06T13:30:08.792Z,28.83
2018-03-06T13:33:14.344Z,28.40
2018-03-06T13:36:19.844Z,29.43
2018-03-06T13:39:25.426Z,28.10
2018-03-06T13:42:30.953Z,31.13
2018-03-06T13:45:36.506Z,28.40
2018-03-06T13:48:42.071Z,30.57
2018-03-06T13:51:47.642Z,29.97
2018-03-06T13:54:53.192Z,27.97
2018-03-06T13:57:58.699Z,27.90
2018-03-06T14:01:04.261Z,27.17
2018-03-06T14:04:09.771Z,29.20
2018-03-06T14:07:15.317Z,30.10
2018-03-06T14:10:20.864Z,29.40
2018-03-06T14:13:26.369Z,29.00
2018-03-06T14:16:31.916Z,28.00
2018-03-06T14:19:37.481Z,27.83
2018-03-06T14:22:43.027Z,28.40
2018-03-06T14:25:48.528Z,30.73
2018-03-06T14:28:54.073Z,27.60
2018-03-06T14:31:59.573Z,27.77
2018-03-06T14:35:04.858Z,27.77
2018-03-06T14:38:10.367Z,27.60
2018-03-06T14:41:15.908Z,27.57
2018-03-06T14:44:21.412Z,26.77
2018-03-06T14:47:26.960Z,28.00
2018-03-06T14:50:32.462Z,26.60
2018-03-06T14:53:38.022Z,28.20
2018-03-06T14:56:43.525Z,26.67
2018-03-06T14:59:49.071Z,25.30
2018-03-06T15:02:54.621Z,27.50
2018-03-06T15:06:00.120Z,27.00
2018-03-06T15:09:05.182Z,27.90
2018-03-06T15:12:10.688Z,26.30
2018-03-06T15:15:16.250Z,28.67
2018-03-06T15:18:21.792Z,27.33
2018-03-06T15:21:27.326Z,25.30
2018-03-06T15:24:32.830Z,27.80
2018-03-06T15:27:42.933Z,27.50
2018-03-06T15:30:48.473Z,26.43
2018-03-06T15:33:53.998Z,26.57
2018-03-06T15:36:59.535Z,26.83
2018-03-06T15:40:05.051Z,30.27
2018-03-06T15:43:10.622Z,27.57
2018-03-06T15:46:16.125Z,28.43
2018-03-06T15:49:25.562Z,29.07
2018-03-06T15:52:35.688Z,30.07
2018-03-06T15:55:44.538Z,28.90
2018-03-06T15:58:50.091Z,28.00
2018-03-06T16:01:55.591Z,26.80
2018-03-06T16:05:07.112Z,25.50
2018-03-06T16:08:30.137Z,29.10
2018-03-06T16:11:53.880Z,27.67
2018-03-06T16:19:12.062Z,26.93
2018-03-06T16:22:41.646Z,28.60
2018-03-06T16:26:22.489Z,26.40
2018-03-06T16:29:48.262Z,26.77
2018-03-06T16:33:14.744Z,27.47
2018-03-06T16:36:43.070Z,26.40
2018-03-06T16:40:09.533Z,28.73
2018-03-06T16:43:36.345Z,27.63
2018-03-06T16:46:58.074Z,25.80
2018-03-06T16:50:23.032Z,25.90
2018-03-06T16:53:43.585Z,28.83
2018-03-06T16:57:24.057Z,27.50
2018-03-06T17:00:45.547Z,27.33
2018-03-06T17:07:53.898Z,26.70
2018-03-06T17:14:52.504Z,27.27
2018-03-06T17:18:20.583Z,28.03
2018-03-06T17:21:44.523Z,29.37
2018-03-06T17:25:16.506Z,27.03
2018-03-06T17:28:43.078Z,29.07
2018-03-06T17:32:22.800Z,30.17
2018-03-06T17:35:47.397Z,27.63
2018-03-06T17:39:24.892Z,28.90
2018-03-06T17:42:47.463Z,28.60
2018-03-06T17:46:13.745Z,29.00
2018-03-06T17:49:33.675Z,28.90
2018-03-06T17:52:56.042Z,28.40
2018-03-06T17:56:23.439Z,29.27
2018-03-06T17:59:48.827Z,32.27
2018-03-06T18:03:15.364Z,29.60
2018-03-06T18:06:39.352Z,28.37
2018-03-06T18:10:21.192Z,30.50
2018-03-06T18:14:03.978Z,31.10
2018-03-06T18:17:28.933Z,29.10
2018-03-06T18:20:52.921Z,31.87
2018-03-06T18:24:27.684Z,35.40
2018-03-06T18:27:55.673Z,33.23
2018-03-06T18:31:20.360Z,34.20
2018-03-06T18:34:43.511Z,33.67
2018-03-06T18:38:07.390Z,31.77
2018-03-06T18:41:35.600Z,33.10
2018-03-06T18:45:04.676Z,32.53
2018-03-06T18:48:28.732Z,30.97
2018-03-06T18:52:06.591Z,31.10
2018-03-06T18:55:25.760Z,32.30
2018-03-06T18:58:49.025Z,34.03
2018-03-06T19:02:27.251Z,32.83
2018-03-06T19:05:56.668Z,32.80
2018-03-06T19:09:21.113Z,33.17
2018-03-06T19:12:44.188Z,32.87
2018-03-06T19:16:12.045Z,33.70
2018-03-06T19:19:28.160Z,33.57
2018-03-06T19:22:47.473Z,31.20
2018-03-06T19:26:13.096Z,33.90
2018-03-06T19:29:37.308Z,32.83
2018-03-06T19:33:03.768Z,32.70
2018-03-06T19:36:27.883Z,32.03
2018-03-06T19:39:56.534Z,33.80
2018-03-06T19:43:21.788Z,32.67
2018-03-06T19:47:03.974Z,29.97
2018-03-06T19:50:31.178Z,32.17
2018-03-06T19:54:00.397Z,30.10
2018-03-06T19:57:24.768Z,32.13
2018-03-06T20:01:07.644Z,32.87
2018-03-06T20:04:32.160Z,31.50
2018-03-06T20:08:14.214Z,32.93
2018-03-06T20:11:39.485Z,30.27
2018-03-06T20:15:24.511Z,30.07
2018-03-06T20:18:50.024Z,31.90
2018-03-06T20:22:12.316Z,30.03
2018-03-06T20:25:53.464Z,31.30
2018-03-06T20:29:13.276Z,29.07
2018-03-06T20:32:41.375Z,29.47
2018-03-06T20:36:11.169Z,30.33
2018-03-06T20:39:41.799Z,29.47
2018-03-06T20:43:06.662Z,30.00
2018-03-06T20:46:36.033Z,30.07
2018-03-06T20:49:47.656Z,28.73
2018-03-06T20:53:10.353Z,29.10
2018-03-06T20:56:21.569Z,30.40
2018-03-06T20:59:31.617Z,30.37
2018-03-06T21:02:49.899Z,28.90
2018-03-06T21:06:02.012Z,31.27
2018-03-06T21:09:09.499Z,30.50
2018-03-06T21:12:15.398Z,31.87
2018-03-06T21:15:20.922Z,30.10
2018-03-06T21:18:26.498Z,30.13
2018-03-06T21:21:32.001Z,30.83
2018-03-06T21:24:37.561Z,32.00
2018-03-06T21:27:44.562Z,32.40
2018-03-06T21:30:50.125Z,31.53
2018-03-06T21:33:55.686Z,31.10
2018-03-06T21:37:14.931Z,32.80
2018-03-06T21:40:39.830Z,33.50
2018-03-06T21:43:56.683Z,32.77
2018-03-06T21:47:37.766Z,33.87
2018-03-06T21:51:09.714Z,33.90
2018-03-06T21:54:40.121Z,33.37
2018-03-06T21:58:12.538Z,34.43
2018-03-06T22:01:45.270Z,36.60
2018-03-06T22:04:58.510Z,33.93
2018-03-06T22:08:07.617Z,34.57
2018-03-06T22:11:13.926Z,35.63
2018-03-06T22:14:19.435Z,36.67
2018-03-06T22:17:24.999Z,34.97
2018-03-06T22:20:30.502Z,34.60
2018-03-06T22:23:36.043Z,35.13
2018-03-06T22:26:41.663Z,34.83
2018-03-06T22:29:47.252Z,36.57
2018-03-06T22:32:52.813Z,35.27
2018-03-06T22:35:58.103Z,35.07
2018-03-06T22:39:03.605Z,33.77
2018-03-06T22:42:09.163Z,35.70
2018-03-06T22:45:14.671Z,36.90
2018-03-06T22:48:20.262Z,35.20
2018-03-06T22:51:25.786Z,37.70
2018-03-06T22:54:31.357Z,34.43
2018-03-06T22:57:36.869Z,36.53
2018-03-06T23:00:59.789Z,32.47
2018-03-06T23:04:05.112Z,34.03
2018-03-06T23:07:10.694Z,36.07
2018-03-06T23:10:16.228Z,38.73
2018-03-06T23:13:21.733Z,35.77
2018-03-06T23:16:27.275Z,37.37
2018-03-06T23:19:32.844Z,35.37
2018-03-06T23:22:38.336Z,36.20
2018-03-06T23:25:43.877Z,35.00
2018-03-06T23:28:49.418Z,36.00
2018-03-06T23:31:54.910Z,35.07
2018-03-06T23:35:00.447Z,36.50
2018-03-06T23:38:05.955Z,37.00
2018-03-06T23:41:11.488Z,35.40
2018-03-06T23:44:16.981Z,35.90
2018-03-06T23:47:22.522Z,36.00
2018-03-06T23:50:28.096Z,34.50
2018-03-06T23:53:33.645Z,36.87
2018-03-06T23:56:39.142Z,37.73
2018-03-06T23:59:44.701Z,35.40
